sensor_id;sensor_type;location;lat;lon;timestamp;pressure;altitude;pressure_sealevel;temperature;humidity
68380;BME280;57711;53.196;19.638;2023-07-08T00:02:12;100792.35;;;18.96;41.27
68380;BME280;57711;53.196;19.638;2023-07-08T00:04:39;100788.52;;;18.95;41.27
68380;BME280;57711;53.196;19.638;2023-07-08T00:07:07;100788.45;;;18.93;41.29
68380;BME280;57711;53.196;19.638;2023-07-08T00:09:36;100784.84;;;18.93;41.43
68380;BME280;57711;53.196;19.638;2023-07-08T00:12:04;100783.08;;;18.91;41.20
68380;BME280;57711;53.196;19.638;2023-07-08T00:14:34;100781.77;;;18.90;41.41
68380;BME280;57711;53.196;19.638;2023-07-08T00:17:00;100782.17;;;18.89;41.55
68380;BME280;57711;53.196;19.638;2023-07-08T00:19:27;100782.63;;;18.89;41.46
68380;BME280;57711;53.196;19.638;2023-07-08T00:21:53;100777.02;;;18.90;41.51
68380;BME280;57711;53.196;19.638;2023-07-08T00:24:19;100775.40;;;18.89;41.49
68380;BME280;57711;53.196;19.638;2023-07-08T00:26:45;100772.64;;;18.88;41.63
68380;BME280;57711;53.196;19.638;2023-07-08T00:29:12;100771.90;;;18.83;41.49
68380;BME280;57711;53.196;19.638;2023-07-08T00:31:39;100770.50;;;18.80;41.50
68380;BME280;57711;53.196;19.638;2023-07-08T00:34:05;100772.08;;;18.81;41.67
68380;BME280;57711;53.196;19.638;2023-07-08T00:36:31;100776.68;;;18.83;41.75
68380;BME280;57711;53.196;19.638;2023-07-08T00:38:58;100778.17;;;18.85;41.72
68380;BME280;57711;53.196;19.638;2023-07-08T00:41:28;100777.52;;;18.85;41.77
68380;BME280;57711;53.196;19.638;2023-07-08T00:43:57;100777.80;;;18.84;41.73
68380;BME280;57711;53.196;19.638;2023-07-08T00:48:55;100775.32;;;18.78;41.95
68380;BME280;57711;53.196;19.638;2023-07-08T00:51:23;100773.35;;;18.79;42.06
68380;BME280;57711;53.196;19.638;2023-07-08T00:53:50;100776.85;;;18.81;41.97
68380;BME280;57711;53.196;19.638;2023-07-08T00:56:17;100774.69;;;18.82;42.11
68380;BME280;57711;53.196;19.638;2023-07-08T00:58:47;100773.04;;;18.82;41.94
68380;BME280;57711;53.196;19.638;2023-07-08T01:01:16;100777.17;;;18.81;42.04
68380;BME280;57711;53.196;19.638;2023-07-08T01:03:45;100779.23;;;18.79;41.86
68380;BME280;57711;53.196;19.638;2023-07-08T01:06:16;100778.55;;;18.79;41.83
68380;BME280;57711;53.196;19.638;2023-07-08T01:08:42;100777.52;;;18.78;41.94
68380;BME280;57711;53.196;19.638;2023-07-08T01:11:10;100775.05;;;18.76;42.13
68380;BME280;57711;53.196;19.638;2023-07-08T01:13:38;100772.95;;;18.72;42.13
68380;BME280;57711;53.196;19.638;2023-07-08T01:16:06;100771.73;;;18.68;42.11
68380;BME280;57711;53.196;19.638;2023-07-08T01:18:33;100771.81;;;18.64;41.99
68380;BME280;57711;53.196;19.638;2023-07-08T01:21:01;100771.03;;;18.60;42.16
68380;BME280;57711;53.196;19.638;2023-07-08T01:23:27;100769.30;;;18.58;42.26
68380;BME280;57711;53.196;19.638;2023-07-08T01:25:54;100769.91;;;18.57;42.20
68380;BME280;57711;53.196;19.638;2023-07-08T01:28:20;100772.32;;;18.57;42.29
68380;BME280;57711;53.196;19.638;2023-07-08T01:30:47;100776.16;;;18.57;42.30
68380;BME280;57711;53.196;19.638;2023-07-08T01:33:18;100774.09;;;18.51;42.11
68380;BME280;57711;53.196;19.638;2023-07-08T01:35:47;100767.33;;;18.49;42.27
68380;BME280;57711;53.196;19.638;2023-07-08T01:38:19;100769.11;;;18.49;42.45
68380;BME280;57711;53.196;19.638;2023-07-08T01:40:48;100765.88;;;18.49;42.32
68380;BME280;57711;53.196;19.638;2023-07-08T01:43:15;100763.82;;;18.49;42.39
68380;BME280;57711;53.196;19.638;2023-07-08T01:45:41;100765.16;;;18.51;42.44
68380;BME280;57711;53.196;19.638;2023-07-08T01:48:11;100758.77;;;18.50;42.50
68380;BME280;57711;53.196;19.638;2023-07-08T01:50:40;100758.75;;;18.49;42.39
68380;BME280;57711;53.196;19.638;2023-07-08T01:53:13;100762.05;;;18.47;42.31
68380;BME280;57711;53.196;19.638;2023-07-08T01:55:40;100761.64;;;18.47;42.40
68380;BME280;57711;53.196;19.638;2023-07-08T01:58:06;100759.59;;;18.51;42.45
68380;BME280;57711;53.196;19.638;2023-07-08T02:00:32;100761.79;;;18.55;42.56
68380;BME280;57711;53.196;19.638;2023-07-08T02:02:59;100763.20;;;18.54;42.59
68380;BME280;57711;53.196;19.638;2023-07-08T02:05:25;100763.03;;;18.50;42.52
68380;BME280;57711;53.196;19.638;2023-07-08T02:07:51;100763.14;;;18.49;42.69
68380;BME280;57711;53.196;19.638;2023-07-08T02:10:17;100766.70;;;18.48;42.72
68380;BME280;57711;53.196;19.638;2023-07-08T02:12:43;100766.23;;;18.46;42.79
68380;BME280;57711;53.196;19.638;2023-07-08T02:15:10;100766.69;;;18.45;42.69
68380;BME280;57711;53.196;19.638;2023-07-08T02:17:36;100763.88;;;18.44;42.73
68380;BME280;57711;53.196;19.638;2023-07-08T02:20:03;100765.73;;;18.44;42.87
68380;BME280;57711;53.196;19.638;2023-07-08T02:22:29;100765.77;;;18.45;42.86
68380;BME280;57711;53.196;19.638;2023-07-08T02:24:55;100766.16;;;18.46;42.89
68380;BME280;57711;53.196;19.638;2023-07-08T02:27:23;100762.94;;;18.47;42.91
68380;BME280;57711;53.196;19.638;2023-07-08T02:29:49;100763.77;;;18.47;42.92
68380;BME280;57711;53.196;19.638;2023-07-08T02:32:16;100761.63;;;18.44;43.00
68380;BME280;57711;53.196;19.638;2023-07-08T02:34:42;100760.46;;;18.43;43.01
68380;BME280;57711;53.196;19.638;2023-07-08T02:37:09;100758.98;;;18.42;43.01
68380;BME280;57711;53.196;19.638;2023-07-08T02:39:35;100754.77;;;18.39;42.95
68380;BME280;57711;53.196;19.638;2023-07-08T02:42:01;100754.25;;;18.39;43.10
68380;BME280;57711;53.196;19.638;2023-07-08T02:44:27;100752.33;;;18.36;43.22
68380;BME280;57711;53.196;19.638;2023-07-08T02:46:53;100753.95;;;18.35;43.12
68380;BME280;57711;53.196;19.638;2023-07-08T02:49:20;100750.75;;;18.34;43.16
68380;BME280;57711;53.196;19.638;2023-07-08T02:51:46;100751.92;;;18.33;43.34
68380;BME280;57711;53.196;19.638;2023-07-08T02:54:12;100755.46;;;18.31;43.17
68380;BME280;57711;53.196;19.638;2023-07-08T02:56:39;100756.50;;;18.27;43.11
68380;BME280;57711;53.196;19.638;2023-07-08T02:59:05;100753.52;;;18.22;43.01
68380;BME280;57711;53.196;19.638;2023-07-08T03:01:32;100753.74;;;18.19;43.19
68380;BME280;57711;53.196;19.638;2023-07-08T03:04:08;100752.82;;;18.21;43.18
68380;BME280;57711;53.196;19.638;2023-07-08T03:06:42;100753.19;;;18.22;43.31
68380;BME280;57711;53.196;19.638;2023-07-08T03:09:09;100755.86;;;18.24;43.30
68380;BME280;57711;53.196;19.638;2023-07-08T03:11:36;100756.39;;;18.26;43.24
68380;BME280;57711;53.196;19.638;2023-07-08T03:14:02;100758.15;;;18.28;43.23
68380;BME280;57711;53.196;19.638;2023-07-08T03:16:28;100760.23;;;18.25;43.28
68380;BME280;57711;53.196;19.638;2023-07-08T03:18:55;100757.31;;;18.23;43.38
68380;BME280;57711;53.196;19.638;2023-07-08T03:21:21;100755.05;;;18.21;43.21
68380;BME280;57711;53.196;19.638;2023-07-08T03:23:47;100751.14;;;18.19;43.36
68380;BME280;57711;53.196;19.638;2023-07-08T03:26:14;100750.65;;;18.19;43.54
68380;BME280;57711;53.196;19.638;2023-07-08T03:28:42;100754.87;;;18.20;43.44
68380;BME280;57711;53.196;19.638;2023-07-08T03:31:09;100753.09;;;18.22;43.42
68380;BME280;57711;53.196;19.638;2023-07-08T03:33:36;100756.72;;;18.23;43.42
68380;BME280;57711;53.196;19.638;2023-07-08T03:36:04;100757.74;;;18.24;43.63
68380;BME280;57711;53.196;19.638;2023-07-08T03:38:30;100757.77;;;18.27;43.58
68380;BME280;57711;53.196;19.638;2023-07-08T03:40:56;100759.23;;;18.30;43.58
68380;BME280;57711;53.196;19.638;2023-07-08T03:43:23;100756.97;;;18.33;43.53
68380;BME280;57711;53.196;19.638;2023-07-08T03:45:49;100760.10;;;18.32;43.60
68380;BME280;57711;53.196;19.638;2023-07-08T03:48:16;100758.96;;;18.33;43.61
68380;BME280;57711;53.196;19.638;2023-07-08T03:50:42;100757.28;;;18.30;43.78
68380;BME280;57711;53.196;19.638;2023-07-08T03:53:08;100756.58;;;18.25;43.63
68380;BME280;57711;53.196;19.638;2023-07-08T03:55:35;100756.67;;;18.25;43.63
68380;BME280;57711;53.196;19.638;2023-07-08T03:58:01;100757.29;;;18.26;43.76
68380;BME280;57711;53.196;19.638;2023-07-08T04:00:29;100759.35;;;18.29;43.93
68380;BME280;57711;53.196;19.638;2023-07-08T04:02:56;100756.20;;;18.31;43.85
68380;BME280;57711;53.196;19.638;2023-07-08T04:05:23;100752.68;;;18.30;43.93
68380;BME280;57711;53.196;19.638;2023-07-08T04:07:49;100750.27;;;18.29;43.85
68380;BME280;57711;53.196;19.638;2023-07-08T04:10:16;100748.13;;;18.28;43.83
68380;BME280;57711;53.196;19.638;2023-07-08T04:12:45;100746.02;;;18.30;43.77
68380;BME280;57711;53.196;19.638;2023-07-08T04:15:11;100749.27;;;18.33;43.99
68380;BME280;57711;53.196;19.638;2023-07-08T04:17:40;100746.98;;;18.34;43.97
68380;BME280;57711;53.196;19.638;2023-07-08T04:20:08;100749.15;;;18.32;44.08
68380;BME280;57711;53.196;19.638;2023-07-08T04:22:37;100748.14;;;18.33;44.03
68380;BME280;57711;53.196;19.638;2023-07-08T04:25:03;100747.91;;;18.30;43.94
68380;BME280;57711;53.196;19.638;2023-07-08T04:27:30;100749.43;;;18.29;44.10
68380;BME280;57711;53.196;19.638;2023-07-08T04:29:56;100745.89;;;18.30;44.14
68380;BME280;57711;53.196;19.638;2023-07-08T04:32:22;100742.23;;;18.28;43.99
68380;BME280;57711;53.196;19.638;2023-07-08T04:34:51;100743.43;;;18.28;44.09
68380;BME280;57711;53.196;19.638;2023-07-08T04:37:18;100743.48;;;18.30;44.14
68380;BME280;57711;53.196;19.638;2023-07-08T04:39:45;100744.64;;;18.35;44.17
68380;BME280;57711;53.196;19.638;2023-07-08T04:42:12;100741.85;;;18.40;44.26
68380;BME280;57711;53.196;19.638;2023-07-08T04:44:41;100743.89;;;18.44;44.21
68380;BME280;57711;53.196;19.638;2023-07-08T04:47:08;100731.96;;;18.48;44.17
68380;BME280;57711;53.196;19.638;2023-07-08T04:49:35;100738.31;;;18.50;44.15
68380;BME280;57711;53.196;19.638;2023-07-08T04:52:01;100734.44;;;18.50;44.25
68380;BME280;57711;53.196;19.638;2023-07-08T04:54:28;100735.05;;;18.49;44.21
68380;BME280;57711;53.196;19.638;2023-07-08T04:56:55;100736.35;;;18.51;44.42
68380;BME280;57711;53.196;19.638;2023-07-08T04:59:22;100739.21;;;18.55;44.32
68380;BME280;57711;53.196;19.638;2023-07-08T05:01:49;100740.52;;;18.58;44.33
68380;BME280;57711;53.196;19.638;2023-07-08T05:04:16;100737.00;;;18.61;44.32
68380;BME280;57711;53.196;19.638;2023-07-08T05:06:43;100738.34;;;18.67;44.40
68380;BME280;57711;53.196;19.638;2023-07-08T05:09:09;100734.06;;;18.72;44.38
68380;BME280;57711;53.196;19.638;2023-07-08T05:11:36;100728.82;;;18.78;44.29
68380;BME280;57711;53.196;19.638;2023-07-08T05:14:02;100729.50;;;18.83;44.42
68380;BME280;57711;53.196;19.638;2023-07-08T05:16:29;100723.88;;;18.90;44.41
68380;BME280;57711;53.196;19.638;2023-07-08T05:18:56;100725.39;;;18.95;44.34
68380;BME280;57711;53.196;19.638;2023-07-08T05:21:22;100724.04;;;19.02;44.50
68380;BME280;57711;53.196;19.638;2023-07-08T05:23:48;100724.47;;;19.09;44.44
68380;BME280;57711;53.196;19.638;2023-07-08T05:26:15;100724.16;;;19.16;44.43
68380;BME280;57711;53.196;19.638;2023-07-08T05:28:41;100722.45;;;19.25;44.22
68380;BME280;57711;53.196;19.638;2023-07-08T05:31:08;100722.49;;;19.34;44.41
68380;BME280;57711;53.196;19.638;2023-07-08T05:33:34;100720.98;;;19.45;44.44
68380;BME280;57711;53.196;19.638;2023-07-08T05:36:01;100720.64;;;19.55;44.36
68380;BME280;57711;53.196;19.638;2023-07-08T05:38:27;100720.30;;;19.66;44.39
68380;BME280;57711;53.196;19.638;2023-07-08T05:40:54;100716.59;;;19.77;44.42
68380;BME280;57711;53.196;19.638;2023-07-08T05:43:20;100712.73;;;19.89;44.39
68380;BME280;57711;53.196;19.638;2023-07-08T05:45:47;100708.85;;;20.05;44.52
68380;BME280;57711;53.196;19.638;2023-07-08T05:48:31;100706.85;;;20.21;44.36
68380;BME280;57711;53.196;19.638;2023-07-08T05:50:57;100702.36;;;20.32;44.38
68380;BME280;57711;53.196;19.638;2023-07-08T05:53:24;100700.31;;;20.44;44.28
68380;BME280;57711;53.196;19.638;2023-07-08T05:55:50;100700.84;;;20.58;44.30
68380;BME280;57711;53.196;19.638;2023-07-08T05:58:16;100696.94;;;20.73;44.18
68380;BME280;57711;53.196;19.638;2023-07-08T06:00:55;100702.99;;;20.89;44.24
68380;BME280;57711;53.196;19.638;2023-07-08T06:03:23;100701.01;;;21.05;44.22
68380;BME280;57711;53.196;19.638;2023-07-08T06:05:49;100699.67;;;21.17;44.13
68380;BME280;57711;53.196;19.638;2023-07-08T06:08:16;100693.37;;;21.30;44.17
68380;BME280;57711;53.196;19.638;2023-07-08T06:10:45;100696.40;;;21.44;43.94
68380;BME280;57711;53.196;19.638;2023-07-08T06:13:12;100694.63;;;21.57;44.10
68380;BME280;57711;53.196;19.638;2023-07-08T06:15:44;100698.52;;;21.70;44.10
68380;BME280;57711;53.196;19.638;2023-07-08T06:18:11;100693.25;;;21.84;44.00
68380;BME280;57711;53.196;19.638;2023-07-08T06:20:37;100690.33;;;21.98;44.05
68380;BME280;57711;53.196;19.638;2023-07-08T06:23:03;100691.30;;;22.11;43.95
68380;BME280;57711;53.196;19.638;2023-07-08T06:25:29;100692.31;;;22.23;43.98
68380;BME280;57711;53.196;19.638;2023-07-08T06:27:56;100695.27;;;22.35;43.87
68380;BME280;57711;53.196;19.638;2023-07-08T06:30:22;100693.53;;;22.44;43.92
68380;BME280;57711;53.196;19.638;2023-07-08T06:32:48;100696.01;;;22.54;43.94
68380;BME280;57711;53.196;19.638;2023-07-08T06:35:15;100692.48;;;22.67;43.86
68380;BME280;57711;53.196;19.638;2023-07-08T06:37:41;100689.41;;;22.79;43.92
68380;BME280;57711;53.196;19.638;2023-07-08T06:40:07;100687.17;;;22.92;43.89
68380;BME280;57711;53.196;19.638;2023-07-08T06:42:34;100683.79;;;23.07;43.94
68380;BME280;57711;53.196;19.638;2023-07-08T06:45:09;100680.47;;;23.25;43.84
68380;BME280;57711;53.196;19.638;2023-07-08T06:47:36;100684.02;;;23.38;43.60
68380;BME280;57711;53.196;19.638;2023-07-08T06:50:02;100684.33;;;23.45;43.60
68380;BME280;57711;53.196;19.638;2023-07-08T06:52:28;100683.14;;;23.52;43.57
68380;BME280;57711;53.196;19.638;2023-07-08T06:55:00;100684.13;;;23.62;43.74
68380;BME280;57711;53.196;19.638;2023-07-08T06:57:30;100690.77;;;23.77;43.66
68380;BME280;57711;53.196;19.638;2023-07-08T06:59:56;100684.06;;;23.90;43.52
68380;BME280;57711;53.196;19.638;2023-07-08T07:02:23;100684.29;;;24.02;43.60
68380;BME280;57711;53.196;19.638;2023-07-08T07:04:49;100684.56;;;24.21;43.76
68380;BME280;57711;53.196;19.638;2023-07-08T07:07:15;100683.42;;;24.34;43.40
68380;BME280;57711;53.196;19.638;2023-07-08T07:09:41;100682.54;;;24.44;43.37
68380;BME280;57711;53.196;19.638;2023-07-08T07:12:08;100680.34;;;24.53;43.34
68380;BME280;57711;53.196;19.638;2023-07-08T07:14:34;100680.42;;;24.69;43.27
68380;BME280;57711;53.196;19.638;2023-07-08T07:17:03;100679.04;;;24.87;43.20
68380;BME280;57711;53.196;19.638;2023-07-08T07:19:34;100675.64;;;24.95;42.86
68380;BME280;57711;53.196;19.638;2023-07-08T07:22:01;100678.59;;;25.01;42.90
68380;BME280;57711;53.196;19.638;2023-07-08T07:24:27;100678.70;;;25.11;42.62
68380;BME280;57711;53.196;19.638;2023-07-08T07:26:53;100678.04;;;25.22;42.54
68380;BME280;57711;53.196;19.638;2023-07-08T07:29:21;100679.10;;;25.33;42.62
68380;BME280;57711;53.196;19.638;2023-07-08T07:31:48;100675.52;;;25.39;42.47
68380;BME280;57711;53.196;19.638;2023-07-08T07:34:14;100675.96;;;25.43;42.50
68380;BME280;57711;53.196;19.638;2023-07-08T07:36:40;100676.21;;;25.52;42.46
68380;BME280;57711;53.196;19.638;2023-07-08T07:39:07;100667.40;;;25.59;42.23
68380;BME280;57711;53.196;19.638;2023-07-08T07:41:33;100667.38;;;25.67;42.12
68380;BME280;57711;53.196;19.638;2023-07-08T07:43:59;100669.39;;;25.77;42.09
68380;BME280;57711;53.196;19.638;2023-07-08T07:46:25;100671.27;;;25.92;42.25
68380;BME280;57711;53.196;19.638;2023-07-08T07:48:52;100672.70;;;26.09;42.08
68380;BME280;57711;53.196;19.638;2023-07-08T07:51:18;100674.10;;;26.17;41.85
68380;BME280;57711;53.196;19.638;2023-07-08T07:53:44;100674.17;;;26.20;41.95
68380;BME280;57711;53.196;19.638;2023-07-08T07:56:10;100675.11;;;26.28;41.83
68380;BME280;57711;53.196;19.638;2023-07-08T07:58:37;100679.23;;;26.37;41.68
68380;BME280;57711;53.196;19.638;2023-07-08T08:01:03;100674.66;;;26.48;41.68
68380;BME280;57711;53.196;19.638;2023-07-08T08:03:29;100673.80;;;26.60;41.46
68380;BME280;57711;53.196;19.638;2023-07-08T08:05:56;100675.42;;;26.69;41.37
68380;BME280;57711;53.196;19.638;2023-07-08T08:08:22;100676.23;;;26.83;41.43
68380;BME280;57711;53.196;19.638;2023-07-08T08:10:48;100683.80;;;26.99;41.20
68380;BME280;57711;53.196;19.638;2023-07-08T08:13:19;100682.57;;;27.07;41.24
68380;BME280;57711;53.196;19.638;2023-07-08T08:15:46;100678.63;;;27.13;41.06
68380;BME280;57711;53.196;19.638;2023-07-08T08:18:12;100676.80;;;27.28;41.29
68380;BME280;57711;53.196;19.638;2023-07-08T08:20:38;100679.40;;;27.40;41.01
68380;BME280;57711;53.196;19.638;2023-07-08T08:23:07;100677.86;;;27.43;40.75
68380;BME280;57711;53.196;19.638;2023-07-08T08:25:33;100683.11;;;27.33;40.44
68380;BME280;57711;53.196;19.638;2023-07-08T08:27:59;100676.48;;;27.32;40.68
68380;BME280;57711;53.196;19.638;2023-07-08T08:30:25;100680.86;;;27.38;40.54
68380;BME280;57711;53.196;19.638;2023-07-08T08:32:51;100676.40;;;27.40;40.43
68380;BME280;57711;53.196;19.638;2023-07-08T08:35:18;100677.62;;;27.48;40.40
68380;BME280;57711;53.196;19.638;2023-07-08T08:37:44;100677.87;;;27.58;40.20
68380;BME280;57711;53.196;19.638;2023-07-08T08:40:15;100675.42;;;27.68;40.28
68380;BME280;57711;53.196;19.638;2023-07-08T08:42:49;100677.02;;;27.78;40.16
68380;BME280;57711;53.196;19.638;2023-07-08T08:45:17;100674.27;;;27.95;40.06
68380;BME280;57711;53.196;19.638;2023-07-08T08:47:47;100671.44;;;28.00;39.96
68380;BME280;57711;53.196;19.638;2023-07-08T08:50:32;100671.65;;;28.02;39.70
68380;BME280;57711;53.196;19.638;2023-07-08T08:53:00;100669.52;;;28.10;39.86
68380;BME280;57711;53.196;19.638;2023-07-08T08:55:28;100666.03;;;28.22;39.62
68380;BME280;57711;53.196;19.638;2023-07-08T09:00:50;100668.10;;;28.15;39.18
68380;BME280;57711;53.196;19.638;2023-07-08T09:03:34;100678.90;;;28.04;39.17
68380;BME280;57711;53.196;19.638;2023-07-08T09:06:10;100674.42;;;27.90;39.01
68380;BME280;57711;53.196;19.638;2023-07-08T09:08:36;100676.60;;;27.84;39.03
68380;BME280;57711;53.196;19.638;2023-07-08T09:13:33;100672.55;;;27.97;39.12
68380;BME280;57711;53.196;19.638;2023-07-08T09:18:32;100665.60;;;28.33;38.86
68380;BME280;57711;53.196;19.638;2023-07-08T09:21:02;100664.80;;;28.52;38.98
68380;BME280;57711;53.196;19.638;2023-07-08T09:23:32;100666.42;;;28.71;38.66
68380;BME280;57711;53.196;19.638;2023-07-08T09:26:01;100666.34;;;28.85;38.70
68380;BME280;57711;53.196;19.638;2023-07-08T09:31:05;100665.61;;;28.63;38.16
68380;BME280;57711;53.196;19.638;2023-07-08T09:33:32;100665.64;;;28.62;38.46
68380;BME280;57711;53.196;19.638;2023-07-08T09:35:59;100668.98;;;28.70;38.49
68380;BME280;57711;53.196;19.638;2023-07-08T09:38:27;100662.13;;;28.62;38.03
68380;BME280;57711;53.196;19.638;2023-07-08T09:40:53;100653.31;;;28.42;37.85
68380;BME280;57711;53.196;19.638;2023-07-08T09:45:47;100656.63;;;28.44;38.11
68380;BME280;57711;53.196;19.638;2023-07-08T09:48:23;100660.51;;;28.62;37.96
68380;BME280;57711;53.196;19.638;2023-07-08T09:50:51;100650.80;;;28.77;37.96
68380;BME280;57711;53.196;19.638;2023-07-08T09:53:18;100643.27;;;28.91;38.01
68380;BME280;57711;53.196;19.638;2023-07-08T09:55:45;100647.80;;;29.07;37.91
68380;BME280;57711;53.196;19.638;2023-07-08T09:58:13;100647.67;;;29.25;37.89
68380;BME280;57711;53.196;19.638;2023-07-08T10:00:41;100647.34;;;29.40;37.71
68380;BME280;57711;53.196;19.638;2023-07-08T10:03:19;100646.39;;;29.58;37.36
68380;BME280;57711;53.196;19.638;2023-07-08T10:05:46;100644.77;;;29.64;37.17
68380;BME280;57711;53.196;19.638;2023-07-08T10:08:18;100645.38;;;29.54;37.04
68380;BME280;57711;53.196;19.638;2023-07-08T10:10:45;100645.48;;;29.50;37.03
68380;BME280;57711;53.196;19.638;2023-07-08T10:18:47;100639.83;;;29.73;36.65
68380;BME280;57711;53.196;19.638;2023-07-08T10:26:40;100643.41;;;29.24;36.41
68380;BME280;57711;53.196;19.638;2023-07-08T10:34:34;100639.45;;;29.34;36.28
68380;BME280;57711;53.196;19.638;2023-07-08T10:45:12;100631.48;;;29.69;35.88
68380;BME280;57711;53.196;19.638;2023-07-08T10:47:46;100624.67;;;29.66;35.57
68380;BME280;57711;53.196;19.638;2023-07-08T10:50:19;100629.76;;;29.69;35.63
68380;BME280;57711;53.196;19.638;2023-07-08T10:58:08;100622.66;;;29.86;35.34
68380;BME280;57711;53.196;19.638;2023-07-08T11:00:49;100612.39;;;29.87;35.25
68380;BME280;57711;53.196;19.638;2023-07-08T11:06:07;100619.81;;;29.63;34.97
68380;BME280;57711;53.196;19.638;2023-07-08T11:08:40;100609.63;;;29.52;35.13
68380;BME280;57711;53.196;19.638;2023-07-08T11:11:16;100606.23;;;29.59;35.28
68380;BME280;57711;53.196;19.638;2023-07-08T11:13:48;100602.87;;;29.63;34.91
68380;BME280;57711;53.196;19.638;2023-07-08T11:16:19;100605.41;;;29.57;34.91
68380;BME280;57711;53.196;19.638;2023-07-08T11:21:28;100603.91;;;29.47;34.92
68380;BME280;57711;53.196;19.638;2023-07-08T11:24:02;100607.14;;;29.50;34.88
68380;BME280;57711;53.196;19.638;2023-07-08T11:26:33;100593.96;;;29.51;34.86
68380;BME280;57711;53.196;19.638;2023-07-08T11:29:02;100596.23;;;29.68;34.79
68380;BME280;57711;53.196;19.638;2023-07-08T11:31:30;100600.61;;;29.85;34.69
68380;BME280;57711;53.196;19.638;2023-07-08T11:33:58;100594.52;;;30.02;34.55
68380;BME280;57711;53.196;19.638;2023-07-08T11:36:25;100598.13;;;30.11;34.42
68380;BME280;57711;53.196;19.638;2023-07-08T11:38:53;100598.44;;;30.23;34.34
68380;BME280;57711;53.196;19.638;2023-07-08T11:41:21;100591.34;;;30.35;34.29
68380;BME280;57711;53.196;19.638;2023-07-08T11:43:51;100585.65;;;30.49;34.27
68380;BME280;57711;53.196;19.638;2023-07-08T11:46:20;100588.49;;;30.64;34.30
68380;BME280;57711;53.196;19.638;2023-07-08T11:48:48;100591.45;;;30.74;34.17
68380;BME280;57711;53.196;19.638;2023-07-08T11:51:17;100586.42;;;30.80;34.25
68380;BME280;57711;53.196;19.638;2023-07-08T11:53:49;100585.95;;;30.88;34.03
68380;BME280;57711;53.196;19.638;2023-07-08T12:01:27;100584.91;;;30.68;33.54
68380;BME280;57711;53.196;19.638;2023-07-08T12:04:17;100584.02;;;30.49;33.46
68380;BME280;57711;53.196;19.638;2023-07-08T12:06:42;100587.39;;;30.37;33.55
68380;BME280;57711;53.196;19.638;2023-07-08T12:11:53;100576.71;;;30.21;33.68
68380;BME280;57711;53.196;19.638;2023-07-08T12:14:19;100577.83;;;30.00;33.50
68380;BME280;57711;53.196;19.638;2023-07-08T12:16:46;100574.14;;;29.84;33.43
68380;BME280;57711;53.196;19.638;2023-07-08T12:19:13;100571.95;;;29.80;33.52
68380;BME280;57711;53.196;19.638;2023-07-08T12:21:41;100569.45;;;29.88;33.62
68380;BME280;57711;53.196;19.638;2023-07-08T12:24:09;100564.17;;;29.96;33.52
68380;BME280;57711;53.196;19.638;2023-07-08T12:26:37;100566.66;;;30.01;33.33
68380;BME280;57711;53.196;19.638;2023-07-08T12:29:03;100562.72;;;30.08;33.29
68380;BME280;57711;53.196;19.638;2023-07-08T12:31:29;100562.38;;;30.12;33.05
68380;BME280;57711;53.196;19.638;2023-07-08T12:33:58;100564.92;;;30.01;33.11
68380;BME280;57711;53.196;19.638;2023-07-08T12:36:25;100560.00;;;30.01;33.20
68380;BME280;57711;53.196;19.638;2023-07-08T12:38:53;100556.95;;;30.03;33.25
68380;BME280;57711;53.196;19.638;2023-07-08T12:41:21;100555.68;;;30.13;33.32
68380;BME280;57711;53.196;19.638;2023-07-08T12:43:48;100554.16;;;30.26;33.18
68380;BME280;57711;53.196;19.638;2023-07-08T12:46:16;100550.41;;;30.30;32.76
68380;BME280;57711;53.196;19.638;2023-07-08T12:48:42;100543.12;;;30.24;32.99
68380;BME280;57711;53.196;19.638;2023-07-08T12:51:10;100541.64;;;30.28;32.95
68380;BME280;57711;53.196;19.638;2023-07-08T12:53:37;100540.80;;;30.35;32.97
68380;BME280;57711;53.196;19.638;2023-07-08T12:56:04;100544.89;;;30.39;32.74
68380;BME280;57711;53.196;19.638;2023-07-08T12:58:32;100540.48;;;30.45;32.75
68380;BME280;57711;53.196;19.638;2023-07-08T13:01:00;100540.29;;;30.38;32.57
68380;BME280;57711;53.196;19.638;2023-07-08T13:03:28;100545.67;;;30.23;32.53
68380;BME280;57711;53.196;19.638;2023-07-08T13:05:55;100548.45;;;30.12;32.56
68380;BME280;57711;53.196;19.638;2023-07-08T13:08:23;100550.98;;;30.13;32.82
68380;BME280;57711;53.196;19.638;2023-07-08T13:10:51;100545.55;;;30.17;32.72
68380;BME280;57711;53.196;19.638;2023-07-08T13:13:23;100546.30;;;30.16;32.56
68380;BME280;57711;53.196;19.638;2023-07-08T13:15:51;100544.40;;;30.02;32.53
68380;BME280;57711;53.196;19.638;2023-07-08T13:18:35;100545.56;;;29.88;32.51
68380;BME280;57711;53.196;19.638;2023-07-08T13:21:02;100542.27;;;29.70;32.44
68380;BME280;57711;53.196;19.638;2023-07-08T13:23:29;100533.75;;;29.66;32.54
68380;BME280;57711;53.196;19.638;2023-07-08T13:25:56;100536.36;;;29.68;32.50
68380;BME280;57711;53.196;19.638;2023-07-08T13:28:27;100536.03;;;29.64;32.33
68380;BME280;57711;53.196;19.638;2023-07-08T13:30:54;100533.95;;;29.56;32.30
68380;BME280;57711;53.196;19.638;2023-07-08T13:33:21;100538.02;;;29.51;32.28
68380;BME280;57711;53.196;19.638;2023-07-08T13:35:48;100537.32;;;29.46;32.23
68380;BME280;57711;53.196;19.638;2023-07-08T13:38:17;100531.13;;;29.39;32.22
68380;BME280;57711;53.196;19.638;2023-07-08T13:40:45;100532.30;;;29.43;32.21
68380;BME280;57711;53.196;19.638;2023-07-08T13:43:12;100531.84;;;29.49;32.30